sensor_id;sensor_type;location;lat;lon;timestamp;temperature;humidity
10581;DHT22;5338;51.500;6.802;2022-09-03T00:02:26;19.40;50.50
10581;DHT22;5338;51.500;6.802;2022-09-03T00:05:02;19.40;50.70
10581;DHT22;5338;51.500;6.802;2022-09-03T00:07:38;19.70;51.70
10581;DHT22;5338;51.500;6.802;2022-09-03T00:10:11;19.40;50.70
10581;DHT22;5338;51.500;6.802;2022-09-03T00:12:42;19.40;61.90
10581;DHT22;5338;51.500;6.802;2022-09-03T00:15:12;19.30;50.70
10581;DHT22;5338;51.500;6.802;2022-09-03T00:17:44;19.10;57.70
10581;DHT22;5338;51.500;6.802;2022-09-03T00:20:14;19.20;50.90
10581;DHT22;5338;51.500;6.802;2022-09-03T00:22:46;19.20;51.10
10581;DHT22;5338;51.500;6.802;2022-09-03T00:25:21;19.20;51.40
10581;DHT22;5338;51.500;6.802;2022-09-03T00:27:52;19.20;51.20
10581;DHT22;5338;51.500;6.802;2022-09-03T00:32:54;19.20;51.40
10581;DHT22;5338;51.500;6.802;2022-09-03T00:35:25;19.20;51.20
10581;DHT22;5338;51.500;6.802;2022-09-03T00:37:53;19.20;51.60
10581;DHT22;5338;51.500;6.802;2022-09-03T00:40:35;19.10;63.60
10581;DHT22;5338;51.500;6.802;2022-09-03T00:43:11;19.00;63.30
10581;DHT22;5338;51.500;6.802;2022-09-03T00:45:48;19.10;51.30
10581;DHT22;5338;51.500;6.802;2022-09-03T00:48:22;19.00;56.20
10581;DHT22;5338;51.500;6.802;2022-09-03T00:51:04;19.00;51.50
10581;DHT22;5338;51.500;6.802;2022-09-03T00:53:39;18.50;52.30
10581;DHT22;5338;51.500;6.802;2022-09-03T00:56:14;19.10;64.10
10581;DHT22;5338;51.500;6.802;2022-09-03T00:58:58;19.00;52.10
10581;DHT22;5338;51.500;6.802;2022-09-03T01:01:38;18.90;51.60
10581;DHT22;5338;51.500;6.802;2022-09-03T01:04:27;18.80;63.50
10581;DHT22;5338;51.500;6.802;2022-09-03T01:07:01;18.90;51.70
10581;DHT22;5338;51.500;6.802;2022-09-03T01:09:43;19.10;63.90
10581;DHT22;5338;51.500;6.802;2022-09-03T01:12:18;18.90;51.90
10581;DHT22;5338;51.500;6.802;2022-09-03T01:14:58;18.90;51.90
10581;DHT22;5338;51.500;6.802;2022-09-03T01:17:35;19.00;57.30
10581;DHT22;5338;51.500;6.802;2022-09-03T01:20:26;18.80;51.70
10581;DHT22;5338;51.500;6.802;2022-09-03T01:26:09;18.70;64.00
10581;DHT22;5338;51.500;6.802;2022-09-03T01:28:48;18.70;52.30
10581;DHT22;5338;51.500;6.802;2022-09-03T01:31:26;18.20;52.20
10581;DHT22;5338;51.500;6.802;2022-09-03T01:34:03;18.70;52.60
10581;DHT22;5338;51.500;6.802;2022-09-03T01:36:36;18.60;52.40
10581;DHT22;5338;51.500;6.802;2022-09-03T01:39:06;18.40;64.50
10581;DHT22;5338;51.500;6.802;2022-09-03T01:41:48;18.50;52.50
10581;DHT22;5338;51.500;6.802;2022-09-03T01:44:53;18.50;52.60
10581;DHT22;5338;51.500;6.802;2022-09-03T01:47:29;18.50;52.50
10581;DHT22;5338;51.500;6.802;2022-09-03T01:50:02;18.40;52.50
10581;DHT22;5338;51.500;6.802;2022-09-03T01:52:41;18.50;52.80
10581;DHT22;5338;51.500;6.802;2022-09-03T01:55:22;18.40;52.80
10581;DHT22;5338;51.500;6.802;2022-09-03T01:57:53;18.60;56.90
10581;DHT22;5338;51.500;6.802;2022-09-03T02:00:25;18.40;52.90
10581;DHT22;5338;51.500;6.802;2022-09-03T02:02:52;18.20;61.60
10581;DHT22;5338;51.500;6.802;2022-09-03T02:05:21;18.40;52.90
10581;DHT22;5338;51.500;6.802;2022-09-03T02:07:55;18.40;56.80
10581;DHT22;5338;51.500;6.802;2022-09-03T02:10:25;18.50;65.30
10581;DHT22;5338;51.500;6.802;2022-09-03T02:12:59;18.40;57.70
10581;DHT22;5338;51.500;6.802;2022-09-03T02:15:28;18.30;53.10
10581;DHT22;5338;51.500;6.802;2022-09-03T02:18:03;18.30;53.40
10581;DHT22;5338;51.500;6.802;2022-09-03T02:22:59;18.20;53.30
10581;DHT22;5338;51.500;6.802;2022-09-03T02:25:31;18.20;53.30
10581;DHT22;5338;51.500;6.802;2022-09-03T02:28:01;18.30;55.00
10581;DHT22;5338;51.500;6.802;2022-09-03T02:30:30;18.10;55.50
10581;DHT22;5338;51.500;6.802;2022-09-03T02:32:57;18.20;62.50
10581;DHT22;5338;51.500;6.802;2022-09-03T02:37:51;18.10;57.50
10581;DHT22;5338;51.500;6.802;2022-09-03T02:42:46;18.20;53.80
10581;DHT22;5338;51.500;6.802;2022-09-03T02:45:19;18.20;53.80
10581;DHT22;5338;51.500;6.802;2022-09-03T02:47:53;18.20;53.60
10581;DHT22;5338;51.500;6.802;2022-09-03T02:50:20;17.90;62.70
10581;DHT22;5338;51.500;6.802;2022-09-03T02:57:42;18.10;57.60
10581;DHT22;5338;51.500;6.802;2022-09-03T03:00:09;17.90;54.20
10581;DHT22;5338;51.500;6.802;2022-09-03T03:02:36;17.90;60.20
10581;DHT22;5338;51.500;6.802;2022-09-03T03:05:05;18.00;55.00
10581;DHT22;5338;51.500;6.802;2022-09-03T03:07:36;17.70;58.50
10581;DHT22;5338;51.500;6.802;2022-09-03T03:10:05;17.80;54.80
10581;DHT22;5338;51.500;6.802;2022-09-03T03:12:33;17.90;68.10
10581;DHT22;5338;51.500;6.802;2022-09-03T03:17:27;17.80;54.80
10581;DHT22;5338;51.500;6.802;2022-09-03T03:19:54;17.80;60.00
10581;DHT22;5338;51.500;6.802;2022-09-03T03:22:22;18.10;60.30
10581;DHT22;5338;51.500;6.802;2022-09-03T03:29:44;17.50;58.20
10581;DHT22;5338;51.500;6.802;2022-09-03T03:32:11;17.60;68.40
10581;DHT22;5338;51.500;6.802;2022-09-03T03:34:38;17.90;62.30
10581;DHT22;5338;51.500;6.802;2022-09-03T03:39:33;17.70;55.50
10581;DHT22;5338;51.500;6.802;2022-09-03T03:46:54;17.50;61.40
10581;DHT22;5338;51.500;6.802;2022-09-03T03:49:21;17.50;60.30
10581;DHT22;5338;51.500;6.802;2022-09-03T03:51:48;17.40;68.90
10581;DHT22;5338;51.500;6.802;2022-09-03T03:56:43;17.50;56.90
10581;DHT22;5338;51.500;6.802;2022-09-03T03:59:10;17.70;62.60
10581;DHT22;5338;51.500;6.802;2022-09-03T04:06:31;17.50;62.20
10581;DHT22;5338;51.500;6.802;2022-09-03T04:11:25;17.50;56.20
10581;DHT22;5338;51.500;6.802;2022-09-03T04:13:53;17.50;56.70
10581;DHT22;5338;51.500;6.802;2022-09-03T04:16:22;17.60;70.10
10581;DHT22;5338;51.500;6.802;2022-09-03T04:18:49;17.60;58.30
10581;DHT22;5338;51.500;6.802;2022-09-03T04:21:18;17.40;56.60
10581;DHT22;5338;51.500;6.802;2022-09-03T04:23:46;17.30;56.60
10581;DHT22;5338;51.500;6.802;2022-09-03T04:26:15;17.30;57.00
10581;DHT22;5338;51.500;6.802;2022-09-03T04:28:42;17.50;66.50
10581;DHT22;5338;51.500;6.802;2022-09-03T04:31:13;17.30;57.40
10581;DHT22;5338;51.500;6.802;2022-09-03T04:36:09;17.20;57.40
10581;DHT22;5338;51.500;6.802;2022-09-03T04:38:38;17.30;58.80
10581;DHT22;5338;51.500;6.802;2022-09-03T04:41:06;17.10;68.10
10581;DHT22;5338;51.500;6.802;2022-09-03T04:43:33;17.00;64.00
10581;DHT22;5338;51.500;6.802;2022-09-03T04:46:02;17.10;57.90
10581;DHT22;5338;51.500;6.802;2022-09-03T04:48:32;17.00;61.80
10581;DHT22;5338;51.500;6.802;2022-09-03T04:51:03;17.00;58.20
10581;DHT22;5338;51.500;6.802;2022-09-03T04:53:32;16.80;72.00
10581;DHT22;5338;51.500;6.802;2022-09-03T05:03:21;16.50;58.30
10581;DHT22;5338;51.500;6.802;2022-09-03T05:05:53;16.90;64.20
10581;DHT22;5338;51.500;6.802;2022-09-03T05:08:20;17.00;72.60
10581;DHT22;5338;51.500;6.802;2022-09-03T05:15:42;16.90;70.60
10581;DHT22;5338;51.500;6.802;2022-09-03T05:23:06;17.10;62.80
10581;DHT22;5338;51.500;6.802;2022-09-03T05:25:33;17.10;59.10
10581;DHT22;5338;51.500;6.802;2022-09-03T05:28:02;17.00;73.50
10581;DHT22;5338;51.500;6.802;2022-09-03T05:32:56;17.10;73.60
10581;DHT22;5338;51.500;6.802;2022-09-03T05:37:53;17.10;59.40
10581;DHT22;5338;51.500;6.802;2022-09-03T05:40:22;17.00;59.20
10581;DHT22;5338;51.500;6.802;2022-09-03T05:42:54;17.10;73.90
10581;DHT22;5338;51.500;6.802;2022-09-03T05:45:21;17.40;74.60
10581;DHT22;5338;51.500;6.802;2022-09-03T05:57:39;17.50;59.40
10581;DHT22;5338;51.500;6.802;2022-09-03T06:00:09;17.60;59.10
10581;DHT22;5338;51.500;6.802;2022-09-03T06:05:03;17.40;73.20
10581;DHT22;5338;51.500;6.802;2022-09-03T06:14:54;17.70;59.30
10581;DHT22;5338;51.500;6.802;2022-09-03T06:17:21;17.40;73.40
10581;DHT22;5338;51.500;6.802;2022-09-03T06:22:15;18.10;62.00
10581;DHT22;5338;51.500;6.802;2022-09-03T06:32:06;18.20;58.80
10581;DHT22;5338;51.500;6.802;2022-09-03T06:34:32;18.20;62.00
10581;DHT22;5338;51.500;6.802;2022-09-03T06:39:26;18.60;73.20
10581;DHT22;5338;51.500;6.802;2022-09-03T06:44:20;18.80;73.30
10581;DHT22;5338;51.500;6.802;2022-09-03T06:49:16;18.70;58.50
10581;DHT22;5338;51.500;6.802;2022-09-03T06:56:40;19.10;57.30
10581;DHT22;5338;51.500;6.802;2022-09-03T06:59:08;19.20;56.70
10581;DHT22;5338;51.500;6.802;2022-09-03T07:01:36;19.60;66.90
10581;DHT22;5338;51.500;6.802;2022-09-03T07:04:06;19.60;60.40
10581;DHT22;5338;51.500;6.802;2022-09-03T07:06:35;19.50;56.60
10581;DHT22;5338;51.500;6.802;2022-09-03T07:09:04;19.90;56.00
10581;DHT22;5338;51.500;6.802;2022-09-03T07:11:30;19.90;69.60
10581;DHT22;5338;51.500;6.802;2022-09-03T07:16:28;19.80;56.40
10581;DHT22;5338;51.500;6.802;2022-09-03T07:18:56;19.90;68.60
10581;DHT22;5338;51.500;6.802;2022-09-03T07:21:24;19.80;55.00
10581;DHT22;5338;51.500;6.802;2022-09-03T07:23:53;19.90;55.10
10581;DHT22;5338;51.500;6.802;2022-09-03T07:26:22;20.00;57.80
10581;DHT22;5338;51.500;6.802;2022-09-03T07:28:49;20.00;55.10
10581;DHT22;5338;51.500;6.802;2022-09-03T07:31:19;20.10;55.40
10581;DHT22;5338;51.500;6.802;2022-09-03T07:33:52;20.10;54.70
10581;DHT22;5338;51.500;6.802;2022-09-03T07:36:21;20.20;55.40
10581;DHT22;5338;51.500;6.802;2022-09-03T07:41:17;20.20;54.40
10581;DHT22;5338;51.500;6.802;2022-09-03T07:43:45;20.20;54.60
10581;DHT22;5338;51.500;6.802;2022-09-03T07:46:13;20.30;54.80
10581;DHT22;5338;51.500;6.802;2022-09-03T07:48:46;20.30;55.10
10581;DHT22;5338;51.500;6.802;2022-09-03T07:51:16;20.70;58.80
10581;DHT22;5338;51.500;6.802;2022-09-03T07:53:43;20.80;54.40
10581;DHT22;5338;51.500;6.802;2022-09-03T07:58:39;20.70;55.70
10581;DHT22;5338;51.500;6.802;2022-09-03T08:01:08;20.90;54.20
10581;DHT22;5338;51.500;6.802;2022-09-03T08:03:36;21.60;57.60
10581;DHT22;5338;51.500;6.802;2022-09-03T08:06:04;21.90;61.40
10581;DHT22;5338;51.500;6.802;2022-09-03T08:08:32;22.00;52.70
10581;DHT22;5338;51.500;6.802;2022-09-03T08:11:05;22.20;58.60
10581;DHT22;5338;51.500;6.802;2022-09-03T08:13:36;22.80;63.00
10581;DHT22;5338;51.500;6.802;2022-09-03T08:16:05;23.30;52.20
10581;DHT22;5338;51.500;6.802;2022-09-03T08:18:33;23.00;50.10
10581;DHT22;5338;51.500;6.802;2022-09-03T08:21:06;22.80;61.70
10581;DHT22;5338;51.500;6.802;2022-09-03T08:23:36;23.00;50.10
10581;DHT22;5338;51.500;6.802;2022-09-03T08:28:30;23.20;55.10
10581;DHT22;5338;51.500;6.802;2022-09-03T08:31:05;23.40;58.40
10581;DHT22;5338;51.500;6.802;2022-09-03T08:33:32;23.00;53.90
10581;DHT22;5338;51.500;6.802;2022-09-03T08:36:07;22.90;50.30
10581;DHT22;5338;51.500;6.802;2022-09-03T08:38:35;22.30;50.40
10581;DHT22;5338;51.500;6.802;2022-09-03T08:41:07;22.90;50.30
10581;DHT22;5338;51.500;6.802;2022-09-03T08:43:55;22.70;50.10
10581;DHT22;5338;51.500;6.802;2022-09-03T08:46:35;22.70;50.90
10581;DHT22;5338;51.500;6.802;2022-09-03T08:49:05;22.70;63.00
10581;DHT22;5338;51.500;6.802;2022-09-03T08:51:36;22.60;50.90
10581;DHT22;5338;51.500;6.802;2022-09-03T08:54:06;22.40;50.70
10581;DHT22;5338;51.500;6.802;2022-09-03T08:56:37;22.60;63.50
10581;DHT22;5338;51.500;6.802;2022-09-03T08:59:05;22.80;56.80
10581;DHT22;5338;51.500;6.802;2022-09-03T09:01:41;22.30;63.60
10581;DHT22;5338;51.500;6.802;2022-09-03T09:04:17;22.30;64.20
10581;DHT22;5338;51.500;6.802;2022-09-03T09:06:50;22.20;51.80
10581;DHT22;5338;51.500;6.802;2022-09-03T09:09:25;22.30;51.80
10581;DHT22;5338;51.500;6.802;2022-09-03T09:12:00;22.30;51.90
10581;DHT22;5338;51.500;6.802;2022-09-03T09:14:34;22.40;51.60
10581;DHT22;5338;51.500;6.802;2022-09-03T09:17:18;22.40;63.40
10581;DHT22;5338;51.500;6.802;2022-09-03T09:19:54;22.40;53.20
10581;DHT22;5338;51.500;6.802;2022-09-03T09:22:28;22.60;57.30
10581;DHT22;5338;51.500;6.802;2022-09-03T09:24:58;22.40;52.80
10581;DHT22;5338;51.500;6.802;2022-09-03T09:27:27;24.10;50.80
10581;DHT22;5338;51.500;6.802;2022-09-03T09:29:58;23.00;49.50
10581;DHT22;5338;51.500;6.802;2022-09-03T09:32:28;23.20;49.30
10581;DHT22;5338;51.500;6.802;2022-09-03T09:34:56;23.40;49.00
10581;DHT22;5338;51.500;6.802;2022-09-03T09:39:55;23.60;48.30
10581;DHT22;5338;51.500;6.802;2022-09-03T09:42:22;23.40;59.40
10581;DHT22;5338;51.500;6.802;2022-09-03T09:47:22;24.00;47.90
10581;DHT22;5338;51.500;6.802;2022-09-03T09:49:53;24.10;47.30
10581;DHT22;5338;51.500;6.802;2022-09-03T09:52:22;24.40;51.80
10581;DHT22;5338;51.500;6.802;2022-09-03T09:54:51;23.80;47.20
10581;DHT22;5338;51.500;6.802;2022-09-03T09:57:22;24.00;47.40
10581;DHT22;5338;51.500;6.802;2022-09-03T10:00:00;24.30;58.80
10581;DHT22;5338;51.500;6.802;2022-09-03T10:05:01;24.70;52.70
10581;DHT22;5338;51.500;6.802;2022-09-03T10:10:06;24.50;46.20
10581;DHT22;5338;51.500;6.802;2022-09-03T10:12:38;24.70;46.20
10581;DHT22;5338;51.500;6.802;2022-09-03T10:15:17;24.70;46.20
10581;DHT22;5338;51.500;6.802;2022-09-03T10:17:54;24.60;46.50
10581;DHT22;5338;51.500;6.802;2022-09-03T10:20:30;24.90;47.00
10581;DHT22;5338;51.500;6.802;2022-09-03T10:23:01;25.30;45.60
10581;DHT22;5338;51.500;6.802;2022-09-03T10:25:35;25.70;45.70
10581;DHT22;5338;51.500;6.802;2022-09-03T10:28:05;25.90;45.00
10581;DHT22;5338;51.500;6.802;2022-09-03T10:30:52;26.20;44.60
10581;DHT22;5338;51.500;6.802;2022-09-03T10:33:25;26.30;44.20
10581;DHT22;5338;51.500;6.802;2022-09-03T10:36:03;26.80;44.60
10581;DHT22;5338;51.500;6.802;2022-09-03T10:38:33;26.60;44.50
10581;DHT22;5338;51.500;6.802;2022-09-03T10:41:09;26.70;45.40
10581;DHT22;5338;51.500;6.802;2022-09-03T10:44:01;26.80;45.70
10581;DHT22;5338;51.500;6.802;2022-09-03T10:46:37;26.70;45.80
10581;DHT22;5338;51.500;6.802;2022-09-03T10:49:26;26.80;45.50
10581;DHT22;5338;51.500;6.802;2022-09-03T10:52:00;27.10;45.10
10581;DHT22;5338;51.500;6.802;2022-09-03T10:54:48;27.20;45.10
10581;DHT22;5338;51.500;6.802;2022-09-03T10:57:30;27.40;44.60
10581;DHT22;5338;51.500;6.802;2022-09-03T11:00:05;27.60;48.80
10581;DHT22;5338;51.500;6.802;2022-09-03T11:03:02;27.50;54.80
10581;DHT22;5338;51.500;6.802;2022-09-03T11:05:37;28.00;53.50
10581;DHT22;5338;51.500;6.802;2022-09-03T11:08:11;27.20;55.80
10581;DHT22;5338;51.500;6.802;2022-09-03T11:10:45;27.60;44.70
10581;DHT22;5338;51.500;6.802;2022-09-03T11:13:18;27.80;44.30
10581;DHT22;5338;51.500;6.802;2022-09-03T11:15:49;27.40;44.80
10581;DHT22;5338;51.500;6.802;2022-09-03T11:18:21;27.00;45.30
10581;DHT22;5338;51.500;6.802;2022-09-03T11:20:50;27.40;44.70
10581;DHT22;5338;51.500;6.802;2022-09-03T11:23:22;27.30;45.50
10581;DHT22;5338;51.500;6.802;2022-09-03T11:25:54;27.90;47.90
10581;DHT22;5338;51.500;6.802;2022-09-03T11:28:30;26.90;46.70
10581;DHT22;5338;51.500;6.802;2022-09-03T11:31:15;26.90;47.50
10581;DHT22;5338;51.500;6.802;2022-09-03T11:33:46;27.00;47.80
10581;DHT22;5338;51.500;6.802;2022-09-03T11:36:23;26.90;48.20
10581;DHT22;5338;51.500;6.802;2022-09-03T11:38:55;26.90;51.50
10581;DHT22;5338;51.500;6.802;2022-09-03T11:41:25;27.50;51.00
10581;DHT22;5338;51.500;6.802;2022-09-03T11:46:28;27.50;49.90
10581;DHT22;5338;51.500;6.802;2022-09-03T11:49:08;27.60;51.30
10581;DHT22;5338;51.500;6.802;2022-09-03T11:51:36;28.10;47.20
10581;DHT22;5338;51.500;6.802;2022-09-03T11:54:11;28.30;49.70
10581;DHT22;5338;51.500;6.802;2022-09-03T11:59:21;27.40;46.60
10581;DHT22;5338;51.500;6.802;2022-09-03T12:01:52;27.30;47.00
10581;DHT22;5338;51.500;6.802;2022-09-03T12:04:34;26.80;47.80
10581;DHT22;5338;51.500;6.802;2022-09-03T12:07:18;26.70;58.60
10581;DHT22;5338;51.500;6.802;2022-09-03T12:10:02;27.50;46.90
10581;DHT22;5338;51.500;6.802;2022-09-03T12:12:48;27.70;45.80
10581;DHT22;5338;51.500;6.802;2022-09-03T12:15:26;27.60;46.30
10581;DHT22;5338;51.500;6.802;2022-09-03T12:18:01;27.80;46.40
10581;DHT22;5338;51.500;6.802;2022-09-03T12:20:45;27.70;46.00
10581;DHT22;5338;51.500;6.802;2022-09-03T12:23:13;27.40;46.20
10581;DHT22;5338;51.500;6.802;2022-09-03T12:25:44;27.20;58.60
10581;DHT22;5338;51.500;6.802;2022-09-03T12:28:15;27.40;49.20
10581;DHT22;5338;51.500;6.802;2022-09-03T12:30:44;26.80;55.70
10581;DHT22;5338;51.500;6.802;2022-09-03T12:33:15;27.70;57.30
10581;DHT22;5338;51.500;6.802;2022-09-03T12:38:12;27.40;46.00
10581;DHT22;5338;51.500;6.802;2022-09-03T12:40:43;27.10;50.10
10581;DHT22;5338;51.500;6.802;2022-09-03T12:43:15;27.80;45.40
10581;DHT22;5338;51.500;6.802;2022-09-03T12:45:43;28.00;44.80
10581;DHT22;5338;51.500;6.802;2022-09-03T12:48:13;28.10;44.20
10581;DHT22;5338;51.500;6.802;2022-09-03T12:50:41;29.10;45.80
10581;DHT22;5338;51.500;6.802;2022-09-03T12:53:10;27.90;44.30
10581;DHT22;5338;51.500;6.802;2022-09-03T12:55:44;27.80;44.00
10581;DHT22;5338;51.500;6.802;2022-09-03T12:58:15;27.90;44.10
10581;DHT22;5338;51.500;6.802;2022-09-03T13:00:45;27.60;44.10
10581;DHT22;5338;51.500;6.802;2022-09-03T13:03:18;27.90;43.80
10581;DHT22;5338;51.500;6.802;2022-09-03T13:05:50;27.80;43.70
10581;DHT22;5338;51.500;6.802;2022-09-03T13:08:21;27.70;44.00
10581;DHT22;5338;51.500;6.802;2022-09-03T13:10:53;27.70;44.00
10581;DHT22;5338;51.500;6.802;2022-09-03T13:13:24;27.40;44.20
10581;DHT22;5338;51.500;6.802;2022-09-03T13:16:12;26.90;44.70
10581;DHT22;5338;51.500;6.802;2022-09-03T13:18:44;26.80;45.40
10581;DHT22;5338;51.500;6.802;2022-09-03T13:21:17;27.10;45.60
10581;DHT22;5338;51.500;6.802;2022-09-03T13:24:12;27.40;45.20
10581;DHT22;5338;51.500;6.802;2022-09-03T13:26:50;27.30;44.70
10581;DHT22;5338;51.500;6.802;2022-09-03T13:29:40;26.90;56.90
10581;DHT22;5338;51.500;6.802;2022-09-03T13:32:21;27.40;45.20
10581;DHT22;5338;51.500;6.802;2022-09-03T13:34:55;27.70;45.20
10581;DHT22;5338;51.500;6.802;2022-09-03T13:37:27;28.10;55.80
10581;DHT22;5338;51.500;6.802;2022-09-03T13:39:59;27.50;44.50
10581;DHT22;5338;51.500;6.802;2022-09-03T13:42:35;27.40;44.80
10581;DHT22;5338;51.500;6.802;2022-09-03T13:45:09;27.20;56.20
10581;DHT22;5338;51.500;6.802;2022-09-03T13:47:42;26.90;45.60
10581;DHT22;5338;51.500;6.802;2022-09-03T13:50:38;26.80;46.20
10581;DHT22;5338;51.500;6.802;2022-09-03T13:53:08;26.60;46.30
10581;DHT22;5338;51.500;6.802;2022-09-03T13:55:44;26.40;46.90
10581;DHT22;5338;51.500;6.802;2022-09-03T13:58:23;26.20;47.30
10581;DHT22;5338;51.500;6.802;2022-09-03T14:01:05;26.20;47.80
10581;DHT22;5338;51.500;6.802;2022-09-03T14:03:37;26.10;48.00
10581;DHT22;5338;51.500;6.802;2022-09-03T14:06:12;26.10;48.50
10581;DHT22;5338;51.500;6.802;2022-09-03T14:08:57;26.10;48.90
10581;DHT22;5338;51.500;6.802;2022-09-03T14:11:29;25.80;49.00
10581;DHT22;5338;51.500;6.802;2022-09-03T14:14:09;25.90;49.40
10581;DHT22;5338;51.500;6.802;2022-09-03T14:16:42;26.10;49.50
10581;DHT22;5338;51.500;6.802;2022-09-03T14:19:14;26.30;54.00
10581;DHT22;5338;51.500;6.802;2022-09-03T14:21:46;26.60;49.00
10581;DHT22;5338;51.500;6.802;2022-09-03T14:24:21;26.60;48.00
10581;DHT22;5338;51.500;6.802;2022-09-03T14:26:51;27.20;59.40
10581;DHT22;5338;51.500;6.802;2022-09-03T14:29:24;26.90;47.50
10581;DHT22;5338;51.500;6.802;2022-09-03T14:32:11;27.00;46.80
10581;DHT22;5338;51.500;6.802;2022-09-03T14:35:08;26.50;46.80
10581;DHT22;5338;51.500;6.802;2022-09-03T14:37:49;26.90;57.60
10581;DHT22;5338;51.500;6.802;2022-09-03T14:40:23;26.40;47.10
10581;DHT22;5338;51.500;6.802;2022-09-03T14:43:02;26.60;47.40
10581;DHT22;5338;51.500;6.802;2022-09-03T14:45:55;26.80;47.00
10581;DHT22;5338;51.500;6.802;2022-09-03T14:48:39;27.10;46.50
10581;DHT22;5338;51.500;6.802;2022-09-03T14:51:21;27.30;46.00
10581;DHT22;5338;51.500;6.802;2022-09-03T14:54:25;27.30;46.70
10581;DHT22;5338;51.500;6.802;2022-09-03T14:57:01;27.70;58.60
10581;DHT22;5338;51.500;6.802;2022-09-03T14:59:58;27.30;47.60
10581;DHT22;5338;51.500;6.802;2022-09-03T15:05:41;27.10;47.60
10581;DHT22;5338;51.500;6.802;2022-09-03T15:08:19;27.30;47.90
10581;DHT22;5338;51.500;6.802;2022-09-03T15:10:51;27.40;47.80
10581;DHT22;5338;51.500;6.802;2022-09-03T15:13:23;27.40;47.70
10581;DHT22;5338;51.500;6.802;2022-09-03T15:16:07;27.40;47.60
10581;DHT22;5338;51.500;6.802;2022-09-03T15:18:51;27.40;47.60
10581;DHT22;5338;51.500;6.802;2022-09-03T15:21:33;27.30;47.60
10581;DHT22;5338;51.500;6.802;2022-09-03T15:24:14;27.20;48.00
10581;DHT22;5338;51.500;6.802;2022-09-03T15:26:54;27.20;47.80
10581;DHT22;5338;51.500;6.802;2022-09-03T15:29:39;27.20;47.80
10581;DHT22;5338;51.500;6.802;2022-09-03T15:32:14;27.10;48.00
10581;DHT22;5338;51.500;6.802;2022-09-03T15:35:05;26.90;48.40
10581;DHT22;5338;51.500;6.802;2022-09-03T15:37:37;27.00;59.10
10581;DHT22;5338;51.500;6.802;2022-09-03T15:40:08;27.20;52.00
10581;DHT22;5338;51.500;6.802;2022-09-03T15:42:41;27.00;48.30
10581;DHT22;5338;51.500;6.802;2022-09-03T15:45:15;26.90;48.70
10581;DHT22;5338;51.500;6.802;2022-09-03T15:47:51;27.00;48.70
10581;DHT22;5338;51.500;6.802;2022-09-03T15:50:30;27.10;48.80
10581;DHT22;5338;51.500;6.802;2022-09-03T15:53:02;27.10;48.70
10581;DHT22;5338;51.500;6.802;2022-09-03T15:55:33;27.30;59.30
10581;DHT22;5338;51.500;6.802;2022-09-03T15:58:05;26.80;53.90
10581;DHT22;5338;51.500;6.802;2022-09-03T16:00:48;27.00;48.50
10581;DHT22;5338;51.500;6.802;2022-09-03T16:03:23;26.90;59.80
10581;DHT22;5338;51.500;6.802;2022-09-03T16:06:02;27.00;49.00
10581;DHT22;5338;51.500;6.802;2022-09-03T16:08:39;26.80;59.50
10581;DHT22;5338;51.500;6.802;2022-09-03T16:11:11;26.30;56.40
10581;DHT22;5338;51.500;6.802;2022-09-03T16:13:48;26.60;49.40
10581;DHT22;5338;51.500;6.802;2022-09-03T16:16:21;26.70;53.70
10581;DHT22;5338;51.500;6.802;2022-09-03T16:18:56;26.30;50.20
10581;DHT22;5338;51.500;6.802;2022-09-03T16:21:31;25.90;56.50
10581;DHT22;5338;51.500;6.802;2022-09-03T16:24:04;26.10;62.10
10581;DHT22;5338;51.500;6.802;2022-09-03T16:26:38;26.20;62.70
10581;DHT22;5338;51.500;6.802;2022-09-03T16:29:12;26.00;51.30
10581;DHT22;5338;51.500;6.802;2022-09-03T16:31:48;26.30;63.70
10581;DHT22;5338;51.500;6.802;2022-09-03T16:34:26;26.00;52.00
10581;DHT22;5338;51.500;6.802;2022-09-03T16:37:06;26.20;63.80
10581;DHT22;5338;51.500;6.802;2022-09-03T16:39:42;26.10;51.80
10581;DHT22;5338;51.500;6.802;2022-09-03T16:42:19;26.20;51.90
10581;DHT22;5338;51.500;6.802;2022-09-03T16:44:59;26.20;51.90
10581;DHT22;5338;51.500;6.802;2022-09-03T16:47:40;26.10;51.70
10581;DHT22;5338;51.500;6.802;2022-09-03T16:50:23;26.10;51.70
10581;DHT22;5338;51.500;6.802;2022-09-03T16:53:03;26.00;62.70
10581;DHT22;5338;51.500;6.802;2022-09-03T16:55:46;25.90;52.20
10581;DHT22;5338;51.500;6.802;2022-09-03T16:58:21;25.90;52.30
10581;DHT22;5338;51.500;6.802;2022-09-03T17:01:03;25.70;64.60
10581;DHT22;5338;51.500;6.802;2022-09-03T17:03:51;25.70;54.60
10581;DHT22;5338;51.500;6.802;2022-09-03T17:06:29;25.80;65.00
10581;DHT22;5338;51.500;6.802;2022-09-03T17:09:07;25.60;53.10
10581;DHT22;5338;51.500;6.802;2022-09-03T17:11:44;25.20;65.00
10581;DHT22;5338;51.500;6.802;2022-09-03T17:14:37;25.40;56.20
10581;DHT22;5338;51.500;6.802;2022-09-03T17:17:15;25.00;65.30
10581;DHT22;5338;51.500;6.802;2022-09-03T17:19:50;25.30;66.00
10581;DHT22;5338;51.500;6.802;2022-09-03T17:22:31;24.90;56.10
10581;DHT22;5338;51.500;6.802;2022-09-03T17:25:02;25.10;54.10
10581;DHT22;5338;51.500;6.802;2022-09-03T17:27:47;25.00;55.40
10581;DHT22;5338;51.500;6.802;2022-09-03T17:30:19;24.60;69.50
10581;DHT22;5338;51.500;6.802;2022-09-03T17:33:05;24.70;56.70
10581;DHT22;5338;51.500;6.802;2022-09-03T17:35:46;24.50;67.50
10581;DHT22;5338;51.500;6.802;2022-09-03T17:38:26;24.50;57.70
10581;DHT22;5338;51.500;6.802;2022-09-03T17:41:04;24.40;58.50
10581;DHT22;5338;51.500;6.802;2022-09-03T17:43:39;24.30;59.30
10581;DHT22;5338;51.500;6.802;2022-09-03T17:46:21;24.20;59.80
10581;DHT22;5338;51.500;6.802;2022-09-03T17:48:52;24.10;61.00
10581;DHT22;5338;51.500;6.802;2022-09-03T17:51:38;24.40;69.00
10581;DHT22;5338;51.500;6.802;2022-09-03T17:54:14;23.90;63.10
10581;DHT22;5338;51.500;6.802;2022-09-03T17:56:48;23.80;64.40
10581;DHT22;5338;51.500;6.802;2022-09-03T17:59:22;23.80;65.20
10581;DHT22;5338;51.500;6.802;2022-09-03T18:02:01;23.70;66.90
10581;DHT22;5338;51.500;6.802;2022-09-03T18:04:41;23.60;67.20
10581;DHT22;5338;51.500;6.802;2022-09-03T18:07:16;23.60;67.80
10581;DHT22;5338;51.500;6.802;2022-09-03T18:09:54;23.60;69.00
10581;DHT22;5338;51.500;6.802;2022-09-03T18:12:33;23.50;69.80
10581;DHT22;5338;51.500;6.802;2022-09-03T18:15:07;23.50;71.40
10581;DHT22;5338;51.500;6.802;2022-09-03T18:17:40;23.40;71.00
10581;DHT22;5338;51.500;6.802;2022-09-03T18:20:10;23.40;71.60
10581;DHT22;5338;51.500;6.802;2022-09-03T18:23:00;23.30;72.90
10581;DHT22;5338;51.500;6.802;2022-09-03T18:25:49;23.20;75.40
10581;DHT22;5338;51.500;6.802;2022-09-03T18:28:41;23.30;73.80
10581;DHT22;5338;51.500;6.802;2022-09-03T18:34:13;23.30;89.20
10581;DHT22;5338;51.500;6.802;2022-09-03T18:36:58;23.30;74.90
10581;DHT22;5338;51.500;6.802;2022-09-03T18:39:44;23.30;75.50
10581;DHT22;5338;51.500;6.802;2022-09-03T18:42:40;23.20;76.10
10581;DHT22;5338;51.500;6.802;2022-09-03T18:45:34;23.30;83.90
10581;DHT22;5338;51.500;6.802;2022-09-03T18:48:28;23.00;77.20
10581;DHT22;5338;51.500;6.802;2022-09-03T18:51:24;23.20;78.60
10581;DHT22;5338;51.500;6.802;2022-09-03T18:54:20;23.10;79.80